createdAt,value
2023-08-11T00:00:22.362Z,13.10
2023-08-11T00:02:53.291Z,13.20
2023-08-11T00:05:21.421Z,13.30
2023-08-11T00:07:52.267Z,13.40
2023-08-11T00:10:20.747Z,13.40
2023-08-11T00:12:48.792Z,13.50
2023-08-11T00:15:16.151Z,13.60
2023-08-11T00:17:43.532Z,13.60
2023-08-11T00:20:13.790Z,13.60
2023-08-11T00:22:41.023Z,13.60
2023-08-11T00:25:09.321Z,13.60
2023-08-11T00:27:36.544Z,13.70
2023-08-11T00:30:05.537Z,13.70
2023-08-11T00:32:32.945Z,13.70
2023-08-11T00:35:00.743Z,13.70
2023-08-11T00:37:27.993Z,13.80
2023-08-11T00:39:55.387Z,13.80
2023-08-11T00:42:23.889Z,13.90
2023-08-11T00:44:51.432Z,13.90
2023-08-11T00:47:19.056Z,13.90
2023-08-11T00:49:46.355Z,13.90
2023-08-11T00:52:13.716Z,13.90
2023-08-11T00:54:42.270Z,14.00
2023-08-11T00:57:10.130Z,13.90
2023-08-11T00:59:37.727Z,14.00
2023-08-11T01:02:05.857Z,14.00
2023-08-11T01:04:34.330Z,14.00
2023-08-11T01:07:18.542Z,14.00
2023-08-11T01:10:00.896Z,14.00
2023-08-11T01:12:42.940Z,14.00
2023-08-11T01:15:23.508Z,14.10
2023-08-11T01:17:52.022Z,14.00
2023-08-11T01:20:21.784Z,14.10
2023-08-11T01:22:55.269Z,14.00
2023-08-11T01:25:23.182Z,14.10
2023-08-11T01:27:58.893Z,14.10
2023-08-11T01:30:28.701Z,14.10
2023-08-11T01:32:57.318Z,14.10
2023-08-11T01:35:38.373Z,14.10
2023-08-11T01:38:12.969Z,14.10
2023-08-11T01:40:41.292Z,14.10
2023-08-11T01:43:11.942Z,14.10
2023-08-11T01:45:40.385Z,14.10
2023-08-11T01:48:11.028Z,14.10
2023-08-11T01:50:39.311Z,14.20
2023-08-11T01:53:06.874Z,14.20
2023-08-11T01:55:35.170Z,14.20
2023-08-11T01:58:03.316Z,14.20
2023-08-11T02:00:30.585Z,14.20
2023-08-11T02:02:59.256Z,14.30
2023-08-11T02:05:27.394Z,14.30
2023-08-11T02:07:57.130Z,14.30
2023-08-11T02:10:24.842Z,14.30
2023-08-11T02:12:52.282Z,14.40
2023-08-11T02:15:19.903Z,14.40
2023-08-11T02:17:47.839Z,14.40
2023-08-11T02:20:23.997Z,14.40
2023-08-11T02:22:53.688Z,14.40
2023-08-11T02:25:23.001Z,14.40
2023-08-11T02:27:51.801Z,14.40
2023-08-11T02:30:19.726Z,14.40
2023-08-11T02:32:47.238Z,14.40
2023-08-11T02:35:18.405Z,14.40
2023-08-11T02:37:46.020Z,14.40
2023-08-11T02:40:13.877Z,14.40
2023-08-11T02:42:49.339Z,14.40
2023-08-11T02:45:16.942Z,14.40
2023-08-11T02:47:44.354Z,14.40
2023-08-11T02:50:12.311Z,14.40
2023-08-11T02:52:40.102Z,14.40
2023-08-11T02:55:08.849Z,14.40
2023-08-11T02:57:36.782Z,14.40
2023-08-11T03:00:11.287Z,14.40
2023-08-11T03:02:38.698Z,14.40
2023-08-11T03:05:08.486Z,14.50
2023-08-11T03:07:39.104Z,14.50
2023-08-11T03:10:07.630Z,14.50
2023-08-11T03:12:37.153Z,14.50
2023-08-11T03:15:06.409Z,14.50
2023-08-11T03:17:36.583Z,14.50
2023-08-11T03:20:08.972Z,14.50
2023-08-11T03:22:36.286Z,14.40
2023-08-11T03:25:05.066Z,14.40
2023-08-11T03:27:32.488Z,14.50
2023-08-11T03:30:00.307Z,14.50
2023-08-11T03:32:28.079Z,14.40
2023-08-11T03:34:56.177Z,14.50
2023-08-11T03:37:23.418Z,14.50
2023-08-11T03:39:50.649Z,14.50
2023-08-11T03:42:18.469Z,14.50
2023-08-11T03:44:46.133Z,14.50
2023-08-11T03:47:13.861Z,14.60
2023-08-11T03:49:42.457Z,14.60
2023-08-11T03:52:09.920Z,14.60
2023-08-11T03:54:45.160Z,14.60
2023-08-11T03:57:16.315Z,14.60
2023-08-11T03:59:45.062Z,14.60
2023-08-11T04:02:14.169Z,14.60
2023-08-11T04:04:42.033Z,14.70
2023-08-11T04:07:09.276Z,14.70
2023-08-11T04:09:41.017Z,14.70
2023-08-11T04:12:08.760Z,14.70
2023-08-11T04:14:38.508Z,14.70
2023-08-11T04:17:05.802Z,14.80
2023-08-11T04:19:33.149Z,14.80
2023-08-11T04:22:00.518Z,14.80
2023-08-11T04:24:28.670Z,14.80
2023-08-11T04:26:57.395Z,14.80
2023-08-11T04:29:25.214Z,14.90
2023-08-11T04:31:53.052Z,14.90
2023-08-11T04:34:21.555Z,15.00
2023-08-11T04:36:48.803Z,15.00
2023-08-11T04:39:16.872Z,15.00
2023-08-11T04:41:44.761Z,15.10
2023-08-11T04:44:12.014Z,15.10
2023-08-11T04:46:39.728Z,15.20
2023-08-11T04:49:07.549Z,15.30
2023-08-11T04:51:34.916Z,15.30
2023-08-11T04:54:04.075Z,15.40
2023-08-11T04:56:31.363Z,15.40
2023-08-11T04:58:58.659Z,15.50
2023-08-11T05:01:26.069Z,15.50
2023-08-11T05:03:54.077Z,15.60
2023-08-11T05:06:21.381Z,15.60
2023-08-11T05:08:48.654Z,15.70
2023-08-11T05:11:15.874Z,15.70
2023-08-11T05:13:44.174Z,15.80
2023-08-11T05:16:11.424Z,15.80
2023-08-11T05:18:43.994Z,15.90
2023-08-11T05:21:14.953Z,15.90
2023-08-11T05:23:42.892Z,16.00
2023-08-11T05:26:10.172Z,16.00
2023-08-11T05:28:37.508Z,16.10
2023-08-11T05:31:05.612Z,16.10
2023-08-11T05:33:35.823Z,16.10
2023-08-11T05:36:03.740Z,16.20
2023-08-11T05:38:31.008Z,16.20
2023-08-11T05:40:58.377Z,16.30
2023-08-11T05:43:25.674Z,16.50
2023-08-11T05:45:53.004Z,16.50
2023-08-11T05:48:20.271Z,16.60
2023-08-11T05:50:47.913Z,16.70
2023-08-11T05:53:15.199Z,16.80
2023-08-11T05:55:42.454Z,16.90
2023-08-11T05:58:10.780Z,17.00
2023-08-11T06:00:38.429Z,17.10
2023-08-11T06:03:05.667Z,17.10
2023-08-11T06:05:32.966Z,17.20
2023-08-11T06:08:06.692Z,17.20
2023-08-11T06:10:34.727Z,17.30
2023-08-11T06:13:02.426Z,17.40
2023-08-11T06:15:31.411Z,17.50
2023-08-11T06:17:58.868Z,17.60
2023-08-11T06:20:38.788Z,17.70
2023-08-11T06:23:09.383Z,17.80
2023-08-11T06:25:37.568Z,17.90
2023-08-11T06:28:05.526Z,18.10
2023-08-11T06:30:32.768Z,18.30
2023-08-11T06:33:00.255Z,18.50
2023-08-11T06:35:27.954Z,18.60
2023-08-11T06:37:55.339Z,18.80
2023-08-11T06:40:22.757Z,19.00
2023-08-11T06:42:49.984Z,19.20
2023-08-11T06:45:19.945Z,19.40
2023-08-11T06:47:47.278Z,19.70
2023-08-11T06:50:14.794Z,19.80
2023-08-11T06:52:42.064Z,20.00
2023-08-11T06:55:09.973Z,20.30
2023-08-11T06:57:38.181Z,20.50
2023-08-11T07:00:08.272Z,20.60
2023-08-11T07:02:36.316Z,20.60
2023-08-11T07:05:04.021Z,20.80
2023-08-11T07:07:31.415Z,20.90
2023-08-11T07:10:01.495Z,20.90
2023-08-11T07:12:30.761Z,20.90
2023-08-11T07:14:58.065Z,21.10
2023-08-11T07:17:25.706Z,21.10
2023-08-11T07:19:53.000Z,21.10
2023-08-11T07:22:20.260Z,21.20
2023-08-11T07:24:48.010Z,21.30
2023-08-11T07:27:17.554Z,21.50
2023-08-11T07:29:46.370Z,21.60
2023-08-11T07:32:13.636Z,21.50
2023-08-11T07:34:41.775Z,21.60
2023-08-11T07:37:09.655Z,21.90
2023-08-11T07:39:37.253Z,22.10
2023-08-11T07:42:04.788Z,22.20
2023-08-11T07:44:34.229Z,22.30
2023-08-11T07:47:03.647Z,22.60
2023-08-11T07:49:31.054Z,22.60
2023-08-11T07:51:58.506Z,22.70
2023-08-11T07:54:25.945Z,22.90
2023-08-11T07:56:53.995Z,23.10
2023-08-11T07:59:21.276Z,23.20
2023-08-11T08:01:48.779Z,23.20
2023-08-11T08:04:16.169Z,23.20
2023-08-11T08:06:46.697Z,23.30
2023-08-11T08:09:15.791Z,23.60
2023-08-11T08:11:45.120Z,23.80
2023-08-11T08:14:13.572Z,24.00
2023-08-11T08:16:48.598Z,24.10
2023-08-11T08:19:16.235Z,24.20
2023-08-11T08:21:43.981Z,24.50
2023-08-11T08:24:12.386Z,24.80
2023-08-11T08:26:39.610Z,25.00
2023-08-11T08:29:07.280Z,25.40
2023-08-11T08:31:34.543Z,25.90
2023-08-11T08:34:01.901Z,26.30
2023-08-11T08:36:29.379Z,26.70
2023-08-11T08:38:56.645Z,26.90
2023-08-11T08:41:29.256Z,27.20
2023-08-11T08:43:57.297Z,27.40
2023-08-11T08:46:31.347Z,27.80
2023-08-11T08:49:21.285Z,27.90
2023-08-11T08:51:49.284Z,27.90
2023-08-11T08:54:16.953Z,28.00
2023-08-11T08:56:45.040Z,28.00
2023-08-11T08:59:12.535Z,28.30
2023-08-11T09:01:40.103Z,28.80
2023-08-11T09:04:09.216Z,29.20
2023-08-11T09:06:36.835Z,29.30
2023-08-11T09:09:05.803Z,29.40
2023-08-11T09:11:34.008Z,29.90
2023-08-11T09:14:05.026Z,30.60
2023-08-11T09:16:34.862Z,30.90
2023-08-11T09:19:03.496Z,31.00
2023-08-11T09:21:31.786Z,31.40
2023-08-11T09:23:59.143Z,31.50
2023-08-11T09:26:26.621Z,31.60
2023-08-11T09:28:55.765Z,31.60
2023-08-11T09:31:26.482Z,31.90
2023-08-11T09:33:53.895Z,32.30
2023-08-11T09:36:21.640Z,32.40
2023-08-11T09:38:50.650Z,32.40
2023-08-11T09:41:18.256Z,32.70
2023-08-11T09:43:49.801Z,32.70
2023-08-11T09:46:26.188Z,33.10
2023-08-11T09:48:57.376Z,33.00
2023-08-11T09:51:24.997Z,32.70
2023-08-11T09:53:53.491Z,33.10
2023-08-11T09:56:22.494Z,33.40
2023-08-11T09:58:53.489Z,33.60
2023-08-11T10:01:22.649Z,34.40
2023-08-11T10:03:50.439Z,35.10
2023-08-11T10:13:48.360Z,35.10
2023-08-11T10:16:15.737Z,37.80
2023-08-11T10:18:44.713Z,38.10
2023-08-11T10:21:13.401Z,38.30
2023-08-11T10:23:41.707Z,38.50
2023-08-11T10:26:09.652Z,39.20
2023-08-11T10:31:06.668Z,39.90
2023-08-11T10:36:02.967Z,42.70
2023-08-11T10:48:52.003Z,38.50
2023-08-11T10:51:37.551Z,34.50
2023-08-11T10:54:07.779Z,33.60
2023-08-11T10:56:39.781Z,33.50
2023-08-11T10:59:26.846Z,33.60
2023-08-11T11:01:56.115Z,33.60
2023-08-11T11:04:27.285Z,34.20
2023-08-11T11:06:54.764Z,35.20
2023-08-11T11:09:23.137Z,36.10
2023-08-11T11:11:52.548Z,37.40
2023-08-11T11:14:20.325Z,38.00
2023-08-11T11:19:15.786Z,40.80
2023-08-11T11:21:43.093Z,41.50
2023-08-11T11:24:11.230Z,40.80
2023-08-11T11:26:38.776Z,39.70
2023-08-11T11:29:06.916Z,39.30
2023-08-11T11:31:37.075Z,38.90
2023-08-11T11:34:06.496Z,39.20
2023-08-11T11:36:35.018Z,39.50
2023-08-11T11:39:05.374Z,39.20
2023-08-11T11:41:33.556Z,41.60
2023-08-11T11:46:34.768Z,44.00
2023-08-11T11:49:15.743Z,46.00
2023-08-11T11:51:44.192Z,42.00
2023-08-11T11:59:23.706Z,43.60
2023-08-11T12:01:51.372Z,46.30
2023-08-11T12:04:19.015Z,45.40
2023-08-11T12:09:15.800Z,44.60
2023-08-11T12:11:43.099Z,45.10
2023-08-11T12:14:12.733Z,46.90
2023-08-11T12:16:40.028Z,47.70
2023-08-11T12:19:10.619Z,47.60
2023-08-11T12:21:38.359Z,47.90
2023-08-11T12:29:06.350Z,47.90
2023-08-11T12:31:33.658Z,50.10
2023-08-11T12:34:02.562Z,49.90
2023-08-11T12:36:29.959Z,49.80
2023-08-11T12:38:57.693Z,50.10
2023-08-11T12:41:25.028Z,50.10
2023-08-11T12:43:52.663Z,50.10
2023-08-11T12:46:19.946Z,49.40
2023-08-11T12:48:47.602Z,49.60
2023-08-11T12:51:14.983Z,48.90
2023-08-11T12:53:42.248Z,49.70
2023-08-11T12:56:09.562Z,49.20
2023-08-11T12:58:36.833Z,49.50
2023-08-11T13:01:07.759Z,48.80
2023-08-11T13:03:35.642Z,49.20
2023-08-11T13:06:02.960Z,49.40
2023-08-11T13:08:30.199Z,49.20
2023-08-11T13:13:25.470Z,48.90
2023-08-11T13:15:53.942Z,47.80
2023-08-11T13:18:21.314Z,47.20
2023-08-11T13:20:49.086Z,47.30
2023-08-11T13:23:16.359Z,47.30
2023-08-11T13:25:43.632Z,47.80
2023-08-11T13:28:10.879Z,48.70
2023-08-11T13:30:39.728Z,48.00
2023-08-11T13:33:08.195Z,47.00
2023-08-11T13:35:35.437Z,46.40
2023-08-11T13:38:03.383Z,46.60
2023-08-11T13:40:30.637Z,46.80
2023-08-11T13:42:57.860Z,47.00
2023-08-11T13:45:26.201Z,46.70
2023-08-11T13:47:54.552Z,45.80
2023-08-11T13:50:22.537Z,45.60
2023-08-11T13:52:50.349Z,45.60
2023-08-11T13:55:17.982Z,45.80
2023-08-11T13:57:49.097Z,46.30
2023-08-11T14:00:17.142Z,46.10
2023-08-11T14:02:44.385Z,46.00
2023-08-11T14:05:11.710Z,46.20
2023-08-11T14:07:39.110Z,45.20
2023-08-11T14:10:06.976Z,45.20
2023-08-11T14:12:34.509Z,46.00
2023-08-11T14:17:30.158Z,45.10
2023-08-11T14:19:57.411Z,44.30
2023-08-11T14:22:24.649Z,44.80
2023-08-11T14:24:53.397Z,44.80
2023-08-11T14:27:23.099Z,45.00
2023-08-11T14:29:50.311Z,45.40
2023-08-11T14:32:24.749Z,44.90
2023-08-11T14:34:53.861Z,44.40
2023-08-11T14:37:22.191Z,44.70
2023-08-11T14:39:49.806Z,45.30
2023-08-11T14:42:18.332Z,45.10
2023-08-11T14:44:45.626Z,44.30
2023-08-11T14:47:14.901Z,44.20
2023-08-11T14:55:01.282Z,43.30
2023-08-11T14:57:29.052Z,42.50
2023-08-11T14:59:56.508Z,42.50
2023-08-11T15:02:24.428Z,42.40
2023-08-11T15:04:54.501Z,41.80
2023-08-11T15:07:22.232Z,41.30
2023-08-11T15:09:49.757Z,40.80
2023-08-11T15:12:17.061Z,41.30
2023-08-11T15:14:44.301Z,41.50
2023-08-11T15:17:14.691Z,41.10
2023-08-11T15:19:41.900Z,40.60
2023-08-11T15:22:09.350Z,40.20
2023-08-11T15:24:37.831Z,39.50
2023-08-11T15:27:05.322Z,38.90
2023-08-11T15:29:32.524Z,39.00
2023-08-11T15:31:59.781Z,39.30
2023-08-11T15:34:27.088Z,39.00
2023-08-11T15:36:54.409Z,38.10
2023-08-11T15:39:22.388Z,37.30
2023-08-11T15:41:50.353Z,36.60
2023-08-11T15:44:20.799Z,36.60
2023-08-11T15:46:49.555Z,36.50
2023-08-11T15:49:16.853Z,36.10
2023-08-11T15:51:44.107Z,35.50
2023-08-11T15:54:11.703Z,35.30
2023-08-11T15:56:39.322Z,35.30
2023-08-11T15:59:08.799Z,35.30
2023-08-11T16:01:36.044Z,35.30
2023-08-11T16:04:04.331Z,35.00
2023-08-11T16:06:31.748Z,34.40
2023-08-11T16:08:58.982Z,34.10
2023-08-11T16:11:26.790Z,33.40
2023-08-11T16:13:54.426Z,33.20
2023-08-11T16:16:21.675Z,32.60
2023-08-11T16:18:49.668Z,32.40
2023-08-11T16:21:16.911Z,32.40
2023-08-11T16:23:44.161Z,32.00
2023-08-11T16:26:11.891Z,31.60
2023-08-11T16:28:39.169Z,31.20
2023-08-11T16:31:07.361Z,31.10
2023-08-11T16:33:35.371Z,30.80
2023-08-11T16:36:03.375Z,30.90
2023-08-11T16:38:31.220Z,30.70
2023-08-11T16:40:58.489Z,31.10
2023-08-11T16:43:26.196Z,31.20
2023-08-11T16:45:53.473Z,31.20
2023-08-11T16:48:21.326Z,31.00
2023-08-11T16:50:49.238Z,30.80
2023-08-11T16:53:16.512Z,30.40
2023-08-11T16:55:44.626Z,29.90
2023-08-11T16:58:11.837Z,29.90
2023-08-11T17:00:39.272Z,29.60
2023-08-11T17:03:06.630Z,29.30
2023-08-11T17:05:34.148Z,29.40
2023-08-11T17:08:02.044Z,29.20
2023-08-11T17:10:29.269Z,29.20
2023-08-11T17:12:56.522Z,29.20
2023-08-11T17:15:23.901Z,29.10
2023-08-11T17:17:51.277Z,29.20
2023-08-11T17:20:18.557Z,29.00
2023-08-11T17:22:48.944Z,29.00
2023-08-11T17:25:18.198Z,29.10
2023-08-11T17:27:50.601Z,29.00
2023-08-11T17:30:18.413Z,28.70
2023-08-11T17:32:46.468Z,28.50
2023-08-11T17:35:14.057Z,28.30
2023-08-11T17:37:41.309Z,28.10
2023-08-11T17:40:09.875Z,28.00
2023-08-11T17:42:37.161Z,28.00
2023-08-11T17:45:05.058Z,28.00
2023-08-11T17:47:36.163Z,27.80
2023-08-11T17:50:04.793Z,27.60
2023-08-11T17:52:32.046Z,27.50
2023-08-11T17:54:59.621Z,27.40
2023-08-11T17:57:26.846Z,27.30
2023-08-11T17:59:54.438Z,27.30
2023-08-11T18:02:21.921Z,27.20
2023-08-11T18:04:49.249Z,27.10
2023-08-11T18:07:16.453Z,26.90
2023-08-11T18:09:43.679Z,26.70
2023-08-11T18:12:11.447Z,26.60
2023-08-11T18:14:51.828Z,26.50
2023-08-11T18:17:19.053Z,26.30
2023-08-11T18:19:47.063Z,26.20
2023-08-11T18:22:14.954Z,26.00
2023-08-11T18:24:42.371Z,25.90
2023-08-11T18:27:09.677Z,25.80
2023-08-11T18:29:36.953Z,25.70
2023-08-11T18:32:04.995Z,25.50
2023-08-11T18:34:32.217Z,25.40
2023-08-11T18:36:59.436Z,25.20
2023-08-11T18:39:27.413Z,25.10
2023-08-11T18:41:54.723Z,24.90
2023-08-11T18:44:23.076Z,24.80
2023-08-11T18:46:51.192Z,24.60
2023-08-11T18:49:18.860Z,24.50
2023-08-11T18:51:46.511Z,24.30
2023-08-11T18:54:14.621Z,24.10
2023-08-11T18:56:43.585Z,24.00
2023-08-11T18:59:11.346Z,23.90
2023-08-11T19:01:39.721Z,23.70
2023-08-11T19:04:08.301Z,23.60
2023-08-11T19:06:38.320Z,23.60
2023-08-11T19:09:11.890Z,23.40
2023-08-11T19:11:39.229Z,23.30
2023-08-11T19:14:10.143Z,23.20
2023-08-11T19:16:37.553Z,23.10
2023-08-11T19:19:05.373Z,23.00
2023-08-11T19:21:33.318Z,22.90
2023-08-11T19:24:00.718Z,22.80
2023-08-11T19:26:27.924Z,22.70
2023-08-11T19:28:56.340Z,22.60
2023-08-11T19:31:23.635Z,22.60
2023-08-11T19:33:50.897Z,22.40
2023-08-11T19:36:18.118Z,22.40
2023-08-11T19:38:45.683Z,22.30
2023-08-11T19:41:13.137Z,22.20
2023-08-11T19:43:41.121Z,22.10
2023-08-11T19:46:08.680Z,22.10
2023-08-11T19:48:36.721Z,22.00
2023-08-11T19:51:04.833Z,21.80
2023-08-11T19:53:32.074Z,21.70
2023-08-11T19:55:59.301Z,21.60
2023-08-11T19:58:26.938Z,21.50
2023-08-11T20:00:54.138Z,21.40
2023-08-11T20:03:21.451Z,21.30
2023-08-11T20:05:49.308Z,21.20
2023-08-11T20:08:16.691Z,21.20
2023-08-11T20:10:49.213Z,21.10
2023-08-11T20:13:17.815Z,21.00
2023-08-11T20:15:45.193Z,20.90
2023-08-11T20:18:12.834Z,20.80
2023-08-11T20:20:44.880Z,20.80
2023-08-11T20:23:12.421Z,20.70
2023-08-11T20:25:39.721Z,20.70
2023-08-11T20:28:06.963Z,20.60
2023-08-11T20:30:36.056Z,20.50
2023-08-11T20:33:03.608Z,20.40
2023-08-11T20:35:30.997Z,20.40
2023-08-11T20:37:58.334Z,20.30
2023-08-11T20:40:26.058Z,20.20
2023-08-11T20:42:53.574Z,20.10
2023-08-11T20:45:21.526Z,20.00
2023-08-11T20:47:49.186Z,19.90
2023-08-11T20:50:16.677Z,19.90
2023-08-11T20:52:43.965Z,19.80
2023-08-11T20:55:11.238Z,19.80
2023-08-11T20:57:38.525Z,19.60
2023-08-11T21:00:06.917Z,19.60
2023-08-11T21:02:34.371Z,19.50
2023-08-11T21:05:01.821Z,19.50
2023-08-11T21:07:29.049Z,19.50
2023-08-11T21:09:57.149Z,19.50
2023-08-11T21:12:24.397Z,19.40
2023-08-11T21:14:51.610Z,19.40
2023-08-11T21:17:18.971Z,19.30
2023-08-11T21:19:46.258Z,19.30
2023-08-11T21:22:14.059Z,19.30
2023-08-11T21:24:41.300Z,19.20
2023-08-11T21:27:08.683Z,19.20
2023-08-11T21:29:36.772Z,19.10
2023-08-11T21:32:04.751Z,19.10
2023-08-11T21:34:32.192Z,19.10
2023-08-11T21:37:01.778Z,19.00
2023-08-11T21:39:29.565Z,19.00
2023-08-11T21:41:56.783Z,19.00
2023-08-11T21:44:24.022Z,19.00
2023-08-11T21:46:51.420Z,18.90
2023-08-11T21:49:18.740Z,18.90
2023-08-11T21:51:45.988Z,18.90
2023-08-11T21:54:13.265Z,18.90
2023-08-11T21:56:40.494Z,18.90
2023-08-11T21:59:08.269Z,18.90
2023-08-11T22:01:35.469Z,18.90
2023-08-11T22:04:03.099Z,19.00
2023-08-11T22:06:30.324Z,19.00
2023-08-11T22:08:57.986Z,18.90
2023-08-11T22:11:35.893Z,18.90
2023-08-11T22:14:05.192Z,18.80
2023-08-11T22:16:35.639Z,18.80
2023-08-11T22:19:03.083Z,18.70
2023-08-11T22:21:31.040Z,18.60
2023-08-11T22:23:58.284Z,18.50
2023-08-11T22:26:25.524Z,18.50
2023-08-11T22:28:52.807Z,18.50
2023-08-11T22:31:20.094Z,18.50
2023-08-11T22:33:47.440Z,18.40
2023-08-11T22:36:15.505Z,18.50
2023-08-11T22:38:42.821Z,18.50
2023-08-11T22:41:10.066Z,18.60
2023-08-11T22:43:37.276Z,18.70
2023-08-11T22:46:05.346Z,18.80
2023-08-11T22:48:32.745Z,18.80
2023-08-11T22:51:00.366Z,18.90
2023-08-11T22:53:27.745Z,18.90
2023-08-11T22:55:55.816Z,18.90
2023-08-11T22:58:23.113Z,19.00
2023-08-11T23:00:50.341Z,18.90
2023-08-11T23:03:17.597Z,18.90
2023-08-11T23:05:44.813Z,18.80
2023-08-11T23:08:12.601Z,18.80
2023-08-11T23:10:39.839Z,18.70
2023-08-11T23:13:07.448Z,18.70
2023-08-11T23:15:34.670Z,18.60
2023-08-11T23:18:02.105Z,18.50
2023-08-11T23:20:29.399Z,18.40
2023-08-11T23:22:56.662Z,18.40
2023-08-11T23:25:23.902Z,18.40
2023-08-11T23:27:51.172Z,18.40
2023-08-11T23:30:18.377Z,18.30
2023-08-11T23:32:45.621Z,18.30
2023-08-11T23:35:13.253Z,18.30
2023-08-11T23:37:40.500Z,18.30
2023-08-11T23:40:08.399Z,18.40
2023-08-11T23:42:35.720Z,18.40
2023-08-11T23:45:06.731Z,18.40
2023-08-11T23:47:37.900Z,18.40
2023-08-11T23:50:05.547Z,18.30
2023-08-11T23:52:36.044Z,18.30
2023-08-11T23:55:06.781Z,18.20
2023-08-11T23:57:35.299Z,18.10
